YBBN/BNE METAR and TAF weather

Enter ICAO airport designator
Station Type Date Time Source
YBBN METAR 2023/02/04 02:00 UTC NOAA

YBBN 040200Z 24011KT 9999 FEW035 SCT071 OVC250 28/17 Q1005 RF00.0/000.0


Station Type Date Time Source
YBBN Decoded METAR 2023/02/04 02:00 UTC NOAA

Brisbane Airport M. O, Australia (YBBN) 27-23S 153-06E 5M
Feb 03, 2023 - 09:00 PM EST / 2023.02.04 0200 UTC
Wind: from the WSW (240 degrees) at 13 MPH (11 KT):0
Visibility: greater than 7 mile(s):0
Sky conditions: overcast
Temperature: 82 F (28 C)
Dew Point: 62 F (17 C)
Relative Humidity: 51%
Pressure (altimeter): 29.68 in. Hg (1005 hPa)
ob: YBBN 040200Z 24011KT 9999 FEW035 SCT071 OVC250 28/17 Q1005 RF00.0/000.0
cycle: 2

Station Type Date Time Source
YBBN TAF 2023/02/03 21:55 UTC NOAA

TAF YBBN 032006Z 0321/0500 35010KT 9999 FEW030
FM032300 25008KT CAVOK
FM040200 05010KT CAVOK
FM040900 11008KT 9999 SCT015
FM041400 19006KT 9999 FEW015 SCT025
FM042300 14012KT 9999 SCT030

Example: see airport list